Time;durP1;ratioP1;P1;durP2;ratioP2;P2;SDS_P1;SDS_P2;PMS_P1;PMS_P2;Temp;Humidity;BMP_temperature;BMP_pressure;BME280_temperature;BME280_humidity;BME280_pressure;Samples;Min_cycle;Max_cycle;Signal;HPM_P1;HPM_P2
2022/01/05 00:00:19;;;;;;;16.60;2.10;;;;;;;;;;4905107;28;106533;-66
2022/01/05 00:02:45;;;;;;;12.13;1.70;;;;;;;;;;4910057;28;106132;-66
2022/01/05 00:05:12;;;;;;;10.90;1.92;;;;;;;;;;4903055;28;106897;-66
2022/01/05 00:07:38;;;;;;;12.25;2.60;;;;;;;;;;4908477;28;106212;-66
2022/01/05 00:10:05;;;;;;;16.05;2.17;;;;;;;;;;4899710;28;107044;-65
2022/01/05 00:12:31;;;;;;;8.73;1.58;;;;;;;;;;4905811;28;108596;-66
2022/01/05 00:14:58;;;;;;;8.00;1.70;;;;;;;;;;4911058;28;106514;-65
2022/01/05 00:17:24;;;;;;;10.90;2.10;;;;;;;;;;4909233;28;107361;-66
2022/01/05 00:19:50;;;;;;;14.38;1.75;;;;;;;;;;4912234;28;107522;-66
2022/01/05 00:22:17;;;;;;;7.75;1.60;;;;;;;;;;4907086;28;106509;-65
2022/01/05 00:24:43;;;;;;;13.52;2.20;;;;;;;;;;4910972;28;109561;-66
2022/01/05 00:27:10;;;;;;;13.50;2.10;;;;;;;;;;4908929;28;105660;-66
2022/01/05 00:29:36;;;;;;;12.43;1.55;;;;;;;;;;4911210;28;107312;-66
2022/01/05 00:32:04;;;;;;;14.40;2.10;;;;;;;;;;4913244;28;106563;-65
2022/01/05 00:34:30;;;;;;;14.05;1.80;;;;;;;;;;4910094;28;107778;-66
2022/01/05 00:36:56;;;;;;;11.98;1.90;;;;;;;;;;4910514;28;106820;-66
2022/01/05 00:39:23;;;;;;;16.15;2.55;;;;;;;;;;4910510;28;107926;-67
2022/01/05 00:41:49;;;;;;;11.30;1.50;;;;;;;;;;4905538;28;106450;-65
2022/01/05 00:44:15;;;;;;;17.92;1.73;;;;;;;;;;4914648;28;106285;-66
2022/01/05 00:46:42;;;;;;;11.70;2.08;;;;;;;;;;4912834;28;107858;-66
2022/01/05 00:49:09;;;;;;;10.35;1.80;;;;;;;;;;4912421;28;106673;-66
2022/01/05 00:51:35;;;;;;;20.20;2.60;;;;;;;;;;4903860;28;106547;-65
2022/01/05 00:54:01;;;;;;;8.30;1.63;;;;;;;;;;4911603;28;105870;-65
2022/01/05 00:56:28;;;;;;;10.40;2.33;;;;;;;;;;4911002;28;106871;-66
2022/01/05 00:58:54;;;;;;;10.93;1.65;;;;;;;;;;4912790;28;107381;-65
2022/01/05 01:01:20;;;;;;;12.45;2.05;;;;;;;;;;4912641;28;106316;-65
2022/01/05 01:03:47;;;;;;;10.27;1.67;;;;;;;;;;4906327;28;106717;-65
2022/01/05 01:06:13;;;;;;;9.90;1.90;;;;;;;;;;4914791;28;108477;-66
2022/01/05 01:08:40;;;;;;;6.25;1.73;;;;;;;;;;4910647;28;106230;-66
2022/01/05 01:11:06;;;;;;;7.55;1.90;;;;;;;;;;4894402;28;107480;-66
2022/01/05 01:13:33;;;;;;;18.75;2.03;;;;;;;;;;4912772;28;106652;-65
2022/01/05 01:15:59;;;;;;;14.25;2.17;;;;;;;;;;4907176;28;105909;-65
2022/01/05 01:18:26;;;;;;;6.95;1.63;;;;;;;;;;4910302;28;106381;-66
2022/01/05 01:20:52;;;;;;;13.00;3.15;;;;;;;;;;4910563;28;106623;-65
2022/01/05 01:23:21;;;;;;;9.73;2.08;;;;;;;;;;4903118;28;106181;-66
2022/01/05 01:25:48;;;;;;;12.33;1.83;;;;;;;;;;4890798;28;107677;-66
2022/01/05 01:28:15;;;;;;;10.60;2.30;;;;;;;;;;4910830;28;106326;-66
2022/01/05 01:30:41;;;;;;;6.32;2.08;;;;;;;;;;4910572;28;107423;-66
2022/01/05 01:33:08;;;;;;;16.67;2.10;;;;;;;;;;4907787;28;107174;-67
2022/01/05 01:35:34;;;;;;;13.57;1.75;;;;;;;;;;4910494;28;107026;-66
2022/01/05 01:38:01;;;;;;;11.95;2.08;;;;;;;;;;4911806;28;106624;-65
2022/01/05 01:40:27;;;;;;;16.65;2.20;;;;;;;;;;4906144;28;107376;-66
2022/01/05 01:42:54;;;;;;;7.78;1.92;;;;;;;;;;4909727;28;107462;-65
2022/01/05 01:45:20;;;;;;;15.90;2.47;;;;;;;;;;4911197;28;108047;-66
2022/01/05 01:47:46;;;;;;;13.82;2.20;;;;;;;;;;4910955;28;106018;-66
2022/01/05 01:50:13;;;;;;;13.13;2.13;;;;;;;;;;4910330;28;106467;-66
2022/01/05 01:52:40;;;;;;;12.48;2.47;;;;;;;;;;4910013;28;106404;-65
2022/01/05 01:55:06;;;;;;;12.20;1.77;;;;;;;;;;4910174;28;108475;-66
2022/01/05 01:57:34;;;;;;;11.77;2.00;;;;;;;;;;4906678;28;108155;-66
2022/01/05 02:00:00;;;;;;;16.58;2.67;;;;;;;;;;4911902;28;107316;-65
2022/01/05 02:02:37;;;;;;;11.50;2.10;;;;;;;;;;4905872;28;107987;-67
2022/01/05 02:05:05;;;;;;;12.32;2.20;;;;;;;;;;4910572;28;108159;-65
2022/01/05 02:07:31;;;;;;;10.82;2.45;;;;;;;;;;4907055;23;106133;-66
2022/01/05 02:09:58;;;;;;;11.85;2.10;;;;;;;;;;4892158;28;106214;-66
2022/01/05 02:12:26;;;;;;;10.13;2.10;;;;;;;;;;4894314;28;106321;-66
2022/01/05 02:14:56;;;;;;;13.60;2.28;;;;;;;;;;4891516;28;107221;-66
2022/01/05 02:17:30;;;;;;;;;;;;;;;;;;4883723;28;106741;-66
2022/01/05 02:19:56;;;;;;;19.50;2.03;;;;;;;;;;4889867;28;123157;-66
2022/01/05 02:22:23;;;;;;;22.85;2.80;;;;;;;;;;4891508;28;106208;-67
2022/01/05 02:24:49;;;;;;;9.98;2.00;;;;;;;;;;4890887;28;107401;-66
2022/01/05 02:27:15;;;;;;;14.52;2.33;;;;;;;;;;4891019;28;106965;-66
2022/01/05 02:29:42;;;;;;;10.55;1.98;;;;;;;;;;4890793;28;106787;-66
2022/01/05 02:32:09;;;;;;;12.35;1.90;;;;;;;;;;4886877;28;106383;-66
2022/01/05 02:34:36;;;;;;;16.05;2.22;;;;;;;;;;4891185;28;106730;-65
2022/01/05 02:37:02;;;;;;;15.20;2.15;;;;;;;;;;4891673;28;108061;-65
2022/01/05 02:39:29;;;;;;;15.02;2.53;;;;;;;;;;4891241;28;106892;-66
2022/01/05 02:41:55;;;;;;;17.05;2.20;;;;;;;;;;4887312;28;108590;-65
2022/01/05 02:44:21;;;;;;;20.80;2.38;;;;;;;;;;4886688;28;107843;-66
2022/01/05 02:46:48;;;;;;;15.00;2.63;;;;;;;;;;4890336;28;106186;-66
2022/01/05 02:49:14;;;;;;;13.68;2.35;;;;;;;;;;4892100;28;106293;-66
2022/01/05 02:51:41;;;;;;;11.70;1.83;;;;;;;;;;4890961;28;106233;-66
2022/01/05 02:54:07;;;;;;;10.35;2.38;;;;;;;;;;4895035;28;107523;-66
2022/01/05 02:56:33;;;;;;;12.98;2.58;;;;;;;;;;4890815;28;107925;-66
2022/01/05 02:59:02;;;;;;;11.75;2.03;;;;;;;;;;4890417;28;105952;-65
2022/01/05 03:01:28;;;;;;;14.63;2.08;;;;;;;;;;4891410;28;107239;-65
2022/01/05 03:03:55;;;;;;;19.05;3.05;;;;;;;;;;4890585;28;107563;-65
2022/01/05 03:06:22;;;;;;;14.43;2.40;;;;;;;;;;4890446;28;106171;-65
2022/01/05 03:08:49;;;;;;;11.35;1.98;;;;;;;;;;4882948;28;107212;-65
2022/01/05 03:11:15;;;;;;;17.35;1.88;;;;;;;;;;4886131;28;107743;-65
2022/01/05 03:13:43;;;;;;;11.80;2.05;;;;;;;;;;4887577;28;105956;-65
2022/01/05 03:16:09;;;;;;;12.00;2.38;;;;;;;;;;4884967;28;107148;-66
2022/01/05 03:18:36;;;;;;;15.48;2.17;;;;;;;;;;4890976;28;106305;-65
2022/01/05 03:21:02;;;;;;;18.23;3.35;;;;;;;;;;4891915;28;106496;-66
2022/01/05 03:23:29;;;;;;;18.42;2.15;;;;;;;;;;4889854;28;108197;-65
2022/01/05 03:25:55;;;;;;;13.18;2.10;;;;;;;;;;4891115;28;106907;-65
2022/01/05 03:28:21;;;;;;;16.02;2.00;;;;;;;;;;4887141;28;108749;-65
2022/01/05 03:30:48;;;;;;;18.25;2.08;;;;;;;;;;4890446;28;109027;-65
2022/01/05 03:33:20;;;;;;;12.60;2.20;;;;;;;;;;4889258;28;107050;-65
2022/01/05 03:35:46;;;;;;;15.35;2.33;;;;;;;;;;4890846;28;106709;-65
2022/01/05 03:38:15;;;;;;;15.63;2.17;;;;;;;;;;4893624;28;107608;-67
2022/01/05 03:40:43;;;;;;;8.43;1.80;;;;;;;;;;4887463;28;108449;-66
2022/01/05 03:43:10;;;;;;;18.42;1.73;;;;;;;;;;4890447;28;106603;-65
2022/01/05 03:45:36;;;;;;;20.73;2.33;;;;;;;;;;4886505;28;106251;-66
2022/01/05 03:48:07;;;;;;;18.30;2.20;;;;;;;;;;4890637;28;106750;-67
2022/01/05 03:50:34;;;;;;;21.70;2.00;;;;;;;;;;4890362;28;107374;-66
2022/01/05 03:53:02;;;;;;;17.05;2.28;;;;;;;;;;4886179;28;107028;-65
2022/01/05 03:55:28;;;;;;;23.45;2.90;;;;;;;;;;4887212;28;108373;-66
2022/01/05 03:57:55;;;;;;;9.63;1.73;;;;;;;;;;4889277;28;107272;-66
2022/01/05 04:00:21;;;;;;;15.23;3.25;;;;;;;;;;4894116;28;105880;-66
2022/01/05 04:02:47;;;;;;;14.15;2.40;;;;;;;;;;4889991;28;106540;-66
2022/01/05 04:05:14;;;;;;;13.20;1.75;;;;;;;;;;4890766;28;107535;-66
2022/01/05 04:07:40;;;;;;;13.02;2.42;;;;;;;;;;4889808;28;106799;-66
2022/01/05 04:10:07;;;;;;;13.80;2.40;;;;;;;;;;4889338;28;106827;-68
2022/01/05 04:12:33;;;;;;;18.42;2.30;;;;;;;;;;4882920;28;106271;-66
2022/01/05 04:15:00;;;;;;;21.13;3.03;;;;;;;;;;4891625;28;106553;-66
2022/01/05 04:17:26;;;;;;;15.13;2.58;;;;;;;;;;4884756;28;108316;-66
2022/01/05 04:19:53;;;;;;;20.65;2.72;;;;;;;;;;4889330;28;106930;-66
2022/01/05 04:22:19;;;;;;;18.13;2.65;;;;;;;;;;4888418;28;106546;-66
2022/01/05 04:24:45;;;;;;;15.98;2.28;;;;;;;;;;4884216;28;106372;-66
2022/01/05 04:27:12;;;;;;;21.35;2.50;;;;;;;;;;4889321;28;108016;-66
2022/01/05 04:29:38;;;;;;;20.48;2.60;;;;;;;;;;4890262;28;106575;-66
2022/01/05 04:32:07;;;;;;;12.27;2.70;;;;;;;;;;4889920;28;105924;-66
2022/01/05 04:34:33;;;;;;;13.07;2.30;;;;;;;;;;4890578;28;106130;-66
2022/01/05 04:37:20;;;;;;;13.90;2.08;;;;;;;;;;4888433;28;108354;-66
2022/01/05 04:39:47;;;;;;;12.48;2.38;;;;;;;;;;4890014;28;106479;-66
2022/01/05 04:42:14;;;;;;;10.93;1.95;;;;;;;;;;4892429;28;105949;-67
2022/01/05 04:44:40;;;;;;;13.98;2.20;;;;;;;;;;4889569;28;105888;-66
2022/01/05 04:47:08;;;;;;;16.73;3.03;;;;;;;;;;4889533;28;106806;-67
2022/01/05 04:49:34;;;;;;;15.88;2.50;;;;;;;;;;4880503;28;106155;-66
2022/01/05 04:52:01;;;;;;;14.15;2.22;;;;;;;;;;4889474;28;106475;-65
2022/01/05 04:54:27;;;;;;;19.50;2.55;;;;;;;;;;4879971;28;108534;-66
2022/01/05 04:56:53;;;;;;;15.27;2.90;;;;;;;;;;4870772;28;106383;-66
2022/01/05 04:59:20;;;;;;;20.30;2.67;;;;;;;;;;4889308;28;106167;-66
2022/01/05 05:01:46;;;;;;;15.60;2.25;;;;;;;;;;4890943;28;107330;-66
2022/01/05 05:04:13;;;;;;;18.98;2.75;;;;;;;;;;4896623;28;106826;-67
2022/01/05 05:06:39;;;;;;;18.58;2.80;;;;;;;;;;4900877;28;107102;-66
2022/01/05 05:09:05;;;;;;;27.17;3.42;;;;;;;;;;4890594;28;107335;-65
2022/01/05 05:11:32;;;;;;;16.17;2.30;;;;;;;;;;4892096;28;106160;-65
2022/01/05 05:13:58;;;;;;;19.15;2.78;;;;;;;;;;4893621;28;106037;-65
2022/01/05 05:16:25;;;;;;;14.23;1.95;;;;;;;;;;4892091;28;107557;-66
2022/01/05 05:18:51;;;;;;;12.48;2.72;;;;;;;;;;4890886;28;105873;-65
2022/01/05 05:21:18;;;;;;;23.27;3.35;;;;;;;;;;4889714;28;106972;-65
2022/01/05 05:23:44;;;;;;;17.27;2.53;;;;;;;;;;4892793;28;107786;-65
2022/01/05 05:26:10;;;;;;;15.98;2.72;;;;;;;;;;4894983;28;106364;-65
2022/01/05 05:28:37;;;;;;;19.27;2.95;;;;;;;;;;4900463;28;107171;-67
2022/01/05 05:31:03;;;;;;;11.27;2.55;;;;;;;;;;4893385;28;106062;-65
2022/01/05 05:33:32;;;;;;;19.27;3.30;;;;;;;;;;4891764;28;107643;-66
2022/01/05 05:35:58;;;;;;;24.88;3.65;;;;;;;;;;4891602;28;106537;-65
2022/01/05 05:38:24;;;;;;;18.95;2.85;;;;;;;;;;4891979;28;105915;-66
2022/01/05 05:40:51;;;;;;;18.90;3.13;;;;;;;;;;4891699;28;107634;-65
2022/01/05 05:43:17;;;;;;;17.00;2.78;;;;;;;;;;4892450;28;107285;-66
2022/01/05 05:45:44;;;;;;;19.55;3.53;;;;;;;;;;4891519;28;106165;-65
2022/01/05 05:48:10;;;;;;;19.30;2.60;;;;;;;;;;4895708;28;107737;-66
2022/01/05 05:50:37;;;;;;;18.40;2.60;;;;;;;;;;4892340;28;106030;-67
2022/01/05 05:53:03;;;;;;;13.80;2.20;;;;;;;;;;4893296;28;106429;-65
2022/01/05 05:55:30;;;;;;;15.18;2.47;;;;;;;;;;4890439;28;107622;-65
2022/01/05 05:57:56;;;;;;;12.65;2.72;;;;;;;;;;4892554;28;106199;-65
2022/01/05 06:00:23;;;;;;;18.60;2.55;;;;;;;;;;4891343;28;107056;-65
2022/01/05 06:02:49;;;;;;;19.60;2.38;;;;;;;;;;4891788;28;106266;-65
2022/01/05 06:05:16;;;;;;;18.98;2.58;;;;;;;;;;4891896;28;106043;-65
2022/01/05 06:07:42;;;;;;;16.42;2.40;;;;;;;;;;4890246;28;106738;-65
2022/01/05 06:10:09;;;;;;;22.73;2.80;;;;;;;;;;4892075;28;109204;-65
2022/01/05 06:12:35;;;;;;;16.77;2.50;;;;;;;;;;4885396;28;106443;-65
2022/01/05 06:15:02;;;;;;;13.18;2.45;;;;;;;;;;4887339;28;106735;-66
2022/01/05 06:17:28;;;;;;;13.27;2.70;;;;;;;;;;4891598;28;107232;-65
2022/01/05 06:19:54;;;;;;;13.27;3.47;;;;;;;;;;4892485;28;106132;-65
2022/01/05 06:22:21;;;;;;;16.20;3.63;;;;;;;;;;4891002;28;106466;-65
2022/01/05 06:24:48;;;;;;;20.60;4.60;;;;;;;;;;4890163;28;106951;-65
2022/01/05 06:27:14;;;;;;;14.65;3.25;;;;;;;;;;4886292;28;107136;-66
2022/01/05 06:29:40;;;;;;;23.23;3.33;;;;;;;;;;4891045;28;107536;-66
2022/01/05 06:32:07;;;;;;;13.63;2.45;;;;;;;;;;4892010;28;108031;-67
2022/01/05 06:34:34;;;;;;;12.65;3.17;;;;;;;;;;4891435;28;106877;-65
2022/01/05 06:37:01;;;;;;;21.40;2.90;;;;;;;;;;4892175;28;106851;-65
2022/01/05 06:39:27;;;;;;;23.30;3.00;;;;;;;;;;4891698;28;106100;-65
2022/01/05 06:41:53;;;;;;;20.70;2.97;;;;;;;;;;4891127;28;107582;-65
2022/01/05 06:44:20;;;;;;;23.63;3.20;;;;;;;;;;4890296;28;105999;-65
2022/01/05 06:46:47;;;;;;;18.13;2.92;;;;;;;;;;4886883;28;107422;-65
2022/01/05 06:49:13;;;;;;;13.20;3.00;;;;;;;;;;4884475;28;108980;-66
2022/01/05 06:51:40;;;;;;;13.35;3.25;;;;;;;;;;4893880;28;107941;-65
2022/01/05 06:54:06;;;;;;;23.02;2.83;;;;;;;;;;4890532;28;106725;-64
2022/01/05 06:56:32;;;;;;;19.67;3.20;;;;;;;;;;4889271;28;107743;-65
2022/01/05 06:58:59;;;;;;;17.52;2.90;;;;;;;;;;4884815;28;106857;-64
2022/01/05 07:01:25;;;;;;;14.98;2.92;;;;;;;;;;4888088;28;108816;-65
2022/01/05 07:03:52;;;;;;;19.80;4.50;;;;;;;;;;4870409;28;107631;-65
2022/01/05 07:06:18;;;;;;;30.67;5.88;;;;;;;;;;4888493;28;106493;-64
2022/01/05 07:08:44;;;;;;;22.33;3.30;;;;;;;;;;4890391;28;107406;-64
2022/01/05 07:11:11;;;;;;;21.60;4.03;;;;;;;;;;4889469;28;105818;-64
2022/01/05 07:13:37;;;;;;;22.23;2.90;;;;;;;;;;4893009;28;106205;-67
2022/01/05 07:16:04;;;;;;;19.20;3.00;;;;;;;;;;4884282;28;107033;-64
2022/01/05 07:18:30;;;;;;;18.33;3.03;;;;;;;;;;4889695;28;107073;-64
2022/01/05 07:20:57;;;;;;;14.18;2.10;;;;;;;;;;4888989;28;107464;-64
2022/01/05 07:23:23;;;;;;;28.33;3.05;;;;;;;;;;4901488;28;105831;-66
2022/01/05 07:25:49;;;;;;;14.02;3.00;;;;;;;;;;4889623;28;106611;-64
2022/01/05 07:28:16;;;;;;;19.63;2.58;;;;;;;;;;4890287;28;107495;-66
2022/01/05 07:30:42;;;;;;;20.77;3.45;;;;;;;;;;4890838;28;106927;-65
2022/01/05 07:33:09;;;;;;;24.00;3.40;;;;;;;;;;4888968;28;105799;-65
2022/01/05 07:35:35;;;;;;;22.75;3.47;;;;;;;;;;4892367;28;107731;-65
2022/01/05 07:38:02;;;;;;;15.23;2.70;;;;;;;;;;4888547;28;107239;-64
2022/01/05 07:40:29;;;;;;;20.17;3.00;;;;;;;;;;4886593;28;106378;-63
2022/01/05 07:42:56;;;;;;;23.83;4.10;;;;;;;;;;4890624;28;106125;-66
2022/01/05 07:45:22;;;;;;;19.00;2.97;;;;;;;;;;4882312;28;107444;-66
2022/01/05 07:47:49;;;;;;;14.85;2.75;;;;;;;;;;4889926;28;107876;-66
2022/01/05 07:50:15;;;;;;;24.40;3.00;;;;;;;;;;4890809;28;105903;-66
2022/01/05 07:52:42;;;;;;;20.48;3.15;;;;;;;;;;4890372;28;106364;-66
2022/01/05 07:55:09;;;;;;;18.13;2.88;;;;;;;;;;4887028;28;108139;-65
2022/01/05 07:57:35;;;;;;;27.30;3.22;;;;;;;;;;4891033;28;106294;-66
2022/01/05 08:00:03;;;;;;;18.65;3.17;;;;;;;;;;4883176;28;108265;-65
2022/01/05 08:02:29;;;;;;;23.98;3.22;;;;;;;;;;4886158;28;106654;-66
2022/01/05 08:04:56;;;;;;;16.10;2.90;;;;;;;;;;4888289;28;106333;-66
2022/01/05 08:07:22;;;;;;;19.52;3.25;;;;;;;;;;4880320;28;106871;-67
2022/01/05 08:09:48;;;;;;;26.45;3.40;;;;;;;;;;4888459;28;106030;-66
2022/01/05 08:12:15;;;;;;;17.92;2.70;;;;;;;;;;4889316;28;106928;-67
2022/01/05 08:14:41;;;;;;;28.38;4.22;;;;;;;;;;4888620;28;109338;-67
2022/01/05 08:17:08;;;;;;;18.52;3.08;;;;;;;;;;4883520;28;106112;-70
2022/01/05 08:19:34;;;;;;;36.08;5.30;;;;;;;;;;4893108;28;107284;-66
2022/01/05 08:22:00;;;;;;;25.48;3.15;;;;;;;;;;4889168;28;106705;-66
2022/01/05 08:24:27;;;;;;;20.67;3.78;;;;;;;;;;4884776;28;106138;-66
2022/01/05 08:26:53;;;;;;;21.52;3.50;;;;;;;;;;4886954;28;107421;-66
2022/01/05 08:29:19;;;;;;;28.23;4.15;;;;;;;;;;4888402;28;107292;-67
2022/01/05 08:31:46;;;;;;;23.85;3.05;;;;;;;;;;4878742;28;108764;-66
2022/01/05 08:34:12;;;;;;;15.18;2.70;;;;;;;;;;4886225;28;108067;-66
2022/01/05 08:36:39;;;;;;;22.42;3.15;;;;;;;;;;4886929;28;106010;-66
2022/01/05 08:39:05;;;;;;;22.25;2.60;;;;;;;;;;4896974;28;106607;-66
2022/01/05 08:41:31;;;;;;;13.98;2.80;;;;;;;;;;4891231;28;106085;-66
2022/01/05 08:43:58;;;;;;;14.88;2.67;;;;;;;;;;4894529;28;106510;-68
2022/01/05 08:46:24;;;;;;;18.40;3.20;;;;;;;;;;4881064;28;109446;-65
2022/01/05 08:48:51;;;;;;;24.38;3.42;;;;;;;;;;4887767;28;106399;-66
2022/01/05 08:51:17;;;;;;;21.95;3.50;;;;;;;;;;4887348;28;107126;-65
2022/01/05 08:53:44;;;;;;;22.52;3.17;;;;;;;;;;4891138;28;107065;-66
2022/01/05 08:56:11;;;;;;;19.92;3.33;;;;;;;;;;4892180;28;106619;-67
2022/01/05 08:58:38;;;;;;;13.82;2.95;;;;;;;;;;4891036;28;109052;-67
2022/01/05 09:01:05;;;;;;;20.95;3.20;;;;;;;;;;4891185;28;107898;-66
2022/01/05 09:03:32;;;;;;;23.27;3.40;;;;;;;;;;4890017;28;107388;-67
2022/01/05 09:06:00;;;;;;;18.42;3.08;;;;;;;;;;4891297;28;107115;-67
2022/01/05 09:08:26;;;;;;;17.52;2.80;;;;;;;;;;4878828;28;105914;-67
2022/01/05 09:10:52;;;;;;;19.90;2.65;;;;;;;;;;4889026;28;106288;-66
2022/01/05 09:13:19;;;;;;;23.33;3.38;;;;;;;;;;4891070;28;107479;-69
2022/01/05 09:15:45;;;;;;;22.20;3.30;;;;;;;;;;4887155;28;106757;-66
2022/01/05 09:18:14;;;;;;;24.55;3.25;;;;;;;;;;4886803;28;106803;-66
2022/01/05 09:20:40;;;;;;;18.80;3.45;;;;;;;;;;4890290;28;106578;-66
2022/01/05 09:23:07;;;;;;;33.83;3.33;;;;;;;;;;4889251;28;107653;-68
2022/01/05 09:25:33;;;;;;;22.35;3.97;;;;;;;;;;4884270;28;108144;-67
2022/01/05 09:28:01;;;;;;;13.85;2.90;;;;;;;;;;4885846;28;107426;-66
2022/01/05 09:30:28;;;;;;;22.95;4.70;;;;;;;;;;4886785;28;107383;-66
2022/01/05 09:32:54;;;;;;;21.75;4.78;;;;;;;;;;4887217;28;107349;-67
2022/01/05 09:35:23;;;;;;;32.40;7.32;;;;;;;;;;4886617;28;106672;-66
2022/01/05 09:37:53;;;;;;;46.67;9.83;;;;;;;;;;4891128;28;106750;-66
2022/01/05 09:43:06;;;;;;;36.70;4.50;;;;;;;;;;4885677;28;107029;-66
2022/01/05 09:45:34;;;;;;;24.67;3.88;;;;;;;;;;4895116;28;106220;-66
2022/01/05 09:48:13;;;;;;;23.67;4.57;;;;;;;;;;4901833;28;106210;-66
2022/01/05 09:50:48;;;;;;;22.00;4.55;;;;;;;;;;4890943;28;106373;-67
2022/01/05 09:53:16;;;;;;;45.40;5.80;;;;;;;;;;4890144;28;107153;-67
2022/01/05 09:55:42;;;;;;;35.38;6.25;;;;;;;;;;4890700;28;106619;-66
2022/01/05 09:58:09;;;;;;;24.17;5.32;;;;;;;;;;4883978;28;106951;-66
2022/01/05 10:00:35;;;;;;;37.67;4.53;;;;;;;;;;4891816;28;106850;-66
2022/01/05 10:03:02;;;;;;;36.58;4.18;;;;;;;;;;4891501;28;105731;-66
2022/01/05 10:05:29;;;;;;;31.33;4.68;;;;;;;;;;4887504;28;108907;-66
2022/01/05 10:07:57;;;;;;;38.22;5.45;;;;;;;;;;4894717;28;106499;-64
2022/01/05 10:10:23;;;;;;;30.65;3.97;;;;;;;;;;4890793;28;106391;-68
2022/01/05 10:12:50;;;;;;;38.72;3.58;;;;;;;;;;4891565;28;107429;-67
2022/01/05 10:15:16;;;;;;;26.35;4.30;;;;;;;;;;4890145;28;108853;-67
2022/01/05 10:17:43;;;;;;;38.60;5.00;;;;;;;;;;4887559;28;106523;-67
2022/01/05 10:20:12;;;;;;;30.35;4.05;;;;;;;;;;4889294;28;108182;-67
2022/01/05 10:22:40;;;;;;;40.67;4.78;;;;;;;;;;4889579;28;107734;-67
2022/01/05 10:25:07;;;;;;;31.83;4.75;;;;;;;;;;4885523;28;108575;-67
2022/01/05 10:27:34;;;;;;;39.75;4.85;;;;;;;;;;4884712;28;107428;-66
2022/01/05 10:30:11;;;;;;;31.40;4.80;;;;;;;;;;4887994;28;107470;-65
2022/01/05 10:32:37;;;;;;;37.03;4.30;;;;;;;;;;4879617;28;107926;-68
2022/01/05 10:35:26;;;;;;;33.08;4.30;;;;;;;;;;4886316;28;106522;-65
2022/01/05 10:37:57;;;;;;;37.17;4.68;;;;;;;;;;4886503;28;106645;-67
2022/01/05 10:40:24;;;;;;;41.28;4.18;;;;;;;;;;4892454;28;107450;-65
2022/01/05 10:42:52;;;;;;;36.95;6.85;;;;;;;;;;4889971;28;106549;-65
2022/01/05 10:45:21;;;;;;;52.53;11.90;;;;;;;;;;4888752;28;106168;-66
2022/01/05 10:48:01;;;;;;;28.45;4.40;;;;;;;;;;4890906;28;108469;-68
2022/01/05 10:50:28;;;;;;;37.13;6.47;;;;;;;;;;4891683;28;106989;-66
2022/01/05 10:52:55;;;;;;;33.90;5.75;;;;;;;;;;4889843;28;107408;-66
2022/01/05 10:55:24;;;;;;;26.73;3.63;;;;;;;;;;4886761;28;107144;-67
2022/01/05 10:57:58;;;;;;;35.22;4.25;;;;;;;;;;4889822;28;108128;-66
2022/01/05 11:00:36;;;;;;;28.48;4.28;;;;;;;;;;4884307;28;108929;-66
2022/01/05 11:03:18;;;;;;;32.55;3.70;;;;;;;;;;4890364;28;106115;-66
2022/01/05 11:05:58;;;;;;;27.33;3.50;;;;;;;;;;4887286;28;108551;-67
2022/01/05 11:08:25;;;;;;;38.88;3.92;;;;;;;;;;4889115;28;106470;-67
2022/01/05 11:10:51;;;;;;;26.35;3.28;;;;;;;;;;4888404;28;106659;-66
2022/01/05 11:13:18;;;;;;;29.67;3.35;;;;;;;;;;4892413;28;109586;-66
2022/01/05 11:15:44;;;;;;;29.58;3.65;;;;;;;;;;4887487;28;106645;-66
2022/01/05 11:18:18;;;;;;;34.35;3.58;;;;;;;;;;4889551;28;108404;-66
2022/01/05 11:20:46;;;;;;;37.60;4.13;;;;;;;;;;4889467;28;106382;-66
2022/01/05 11:23:13;;;;;;;29.25;3.15;;;;;;;;;;4886844;28;106667;-64
2022/01/05 11:25:41;;;;;;;25.05;2.97;;;;;;;;;;4885895;28;107932;-67
2022/01/05 11:28:08;;;;;;;29.85;3.95;;;;;;;;;;4890870;28;106567;-67
2022/01/05 11:30:35;;;;;;;22.55;2.83;;;;;;;;;;4890685;28;105985;-66
2022/01/05 11:33:02;;;;;;;20.98;2.88;;;;;;;;;;4890152;28;105984;-67
2022/01/05 11:35:28;;;;;;;28.02;2.83;;;;;;;;;;4892753;28;106535;-67
2022/01/05 11:37:54;;;;;;;29.27;3.38;;;;;;;;;;4890594;28;107412;-66
2022/01/05 11:40:22;;;;;;;28.55;3.58;;;;;;;;;;4885707;28;107491;-66
2022/01/05 11:42:50;;;;;;;23.83;3.03;;;;;;;;;;4888355;28;105782;-68
2022/01/05 11:45:27;;;;;;;38.00;3.65;;;;;;;;;;4889235;28;107642;-67
2022/01/05 11:48:09;;;;;;;24.05;2.92;;;;;;;;;;4888264;28;106679;-66
2022/01/05 11:50:41;;;;;;;25.27;2.97;;;;;;;;;;4890279;28;106932;-67
2022/01/05 11:53:08;;;;;;;26.05;2.85;;;;;;;;;;4890780;28;106231;-67
2022/01/05 11:55:53;;;;;;;27.08;4.25;;;;;;;;;;4883833;28;107469;-68
2022/01/05 11:58:21;;;;;;;20.75;2.42;;;;;;;;;;4891960;28;106203;-65
2022/01/05 12:01:07;;;;;;;18.63;2.80;;;;;;;;;;4880710;28;107511;-66
2022/01/05 12:03:49;;;;;;;22.40;2.80;;;;;;;;;;4888952;28;106165;-68
2022/01/05 12:06:16;;;;;;;20.52;3.10;;;;;;;;;;4889148;28;106178;-65
2022/01/05 12:08:47;;;;;;;24.92;2.88;;;;;;;;;;4887713;28;106771;-65
2022/01/05 12:11:29;;;;;;;23.55;2.92;;;;;;;;;;4886267;28;107813;-67
2022/01/05 12:13:59;;;;;;;23.52;2.85;;;;;;;;;;4889190;28;108471;-65
2022/01/05 12:16:26;;;;;;;20.38;2.65;;;;;;;;;;4884449;28;107561;-65
2022/01/05 12:19:12;;;;;;;27.23;2.97;;;;;;;;;;4885158;28;106402;-65
2022/01/05 12:21:42;;;;;;;23.15;3.05;;;;;;;;;;4887924;28;107436;-65
2022/01/05 12:24:08;;;;;;;23.88;3.95;;;;;;;;;;4884024;28;106644;-66
2022/01/05 12:26:35;;;;;;;26.38;3.25;;;;;;;;;;4883848;28;107050;-66
2022/01/05 12:29:01;;;;;;;21.55;2.72;;;;;;;;;;4883402;28;107023;-65
2022/01/05 12:31:51;;;;;;;17.90;2.88;;;;;;;;;;4883903;28;107162;-66
2022/01/05 12:34:17;;;;;;;;;;;;;;;;;;4885190;28;108156;-65
2022/01/05 12:36:44;;;;;;;24.33;3.30;;;;;;;;;;4881315;28;135667;-66
2022/01/05 12:39:10;;;;;;;23.83;3.25;;;;;;;;;;4883512;28;108866;-66
2022/01/05 12:41:38;;;;;;;20.40;2.75;;;;;;;;;;4884213;28;108526;-67
2022/01/05 12:44:26;;;;;;;19.85;2.95;;;;;;;;;;4888755;28;106186;-66
2022/01/05 12:46:53;;;;;;;19.83;3.72;;;;;;;;;;4885935;28;107796;-66
2022/01/05 12:49:23;;;;;;;34.65;3.05;;;;;;;;;;4888741;28;107434;-65
2022/01/05 12:51:51;;;;;;;21.38;3.03;;;;;;;;;;4883104;28;107502;-65
2022/01/05 12:54:18;;;;;;;23.38;3.55;;;;;;;;;;4887830;28;106353;-65
2022/01/05 12:56:47;;;;;;;27.85;3.08;;;;;;;;;;4885794;28;109111;-65
2022/01/05 12:59:34;;;;;;;27.83;2.88;;;;;;;;;;4877312;28;105527;-66
2022/01/05 13:02:03;;;;;;;28.88;3.75;;;;;;;;;;4888574;28;106154;-65
2022/01/05 13:04:30;;;;;;;22.30;2.72;;;;;;;;;;4890184;28;109768;-65
2022/01/05 13:06:58;;;;;;;27.38;2.58;;;;;;;;;;4882607;28;108586;-65
2022/01/05 13:09:28;;;;;;;15.87;4.17;;;;;;;;;;4887975;28;106357;-66
2022/01/05 13:11:57;;;;;;;23.65;3.53;;;;;;;;;;4888949;28;106597;-65
2022/01/05 13:14:26;;;;;;;23.60;3.05;;;;;;;;;;4885782;28;106043;-66
2022/01/05 13:16:52;;;;;;;25.33;3.33;;;;;;;;;;4888941;28;107957;-65
2022/01/05 13:19:27;;;;;;;31.17;3.88;;;;;;;;;;4889449;28;106711;-65
2022/01/05 13:21:54;;;;;;;25.58;3.35;;;;;;;;;;4891155;28;106062;-66
2022/01/05 13:24:21;;;;;;;14.98;2.08;;;;;;;;;;4891291;28;107401;-66
2022/01/05 13:27:00;;;;;;;22.23;2.95;;;;;;;;;;4895214;28;106224;-66
2022/01/05 13:29:28;;;;;;;22.45;3.17;;;;;;;;;;4891244;28;107452;-66
2022/01/05 13:31:55;;;;;;;25.75;2.95;;;;;;;;;;4891574;28;106350;-66
2022/01/05 13:34:35;;;;;;;25.25;3.65;;;;;;;;;;4892391;28;107700;-65
2022/01/05 13:37:05;;;;;;;20.17;2.63;;;;;;;;;;4882694;28;107416;-65
2022/01/05 13:39:39;;;;;;;30.25;3.03;;;;;;;;;;4890442;28;106601;-65
2022/01/05 13:42:06;;;;;;;23.98;3.25;;;;;;;;;;4879442;28;107026;-65
2022/01/05 13:44:33;;;;;;;27.52;2.80;;;;;;;;;;4888139;28;109538;-65
2022/01/05 13:47:08;;;;;;;30.67;2.47;;;;;;;;;;4887297;28;106359;-65
2022/01/05 13:49:34;;;;;;;33.72;3.45;;;;;;;;;;4893089;28;106904;-66
2022/01/05 13:52:00;;;;;;;30.50;3.17;;;;;;;;;;4883864;28;106002;-65
2022/01/05 13:54:27;;;;;;;30.75;3.40;;;;;;;;;;4877977;28;107855;-66
2022/01/05 13:56:53;;;;;;;26.60;3.63;;;;;;;;;;4891658;28;107277;-65
2022/01/05 13:59:19;;;;;;;26.13;3.30;;;;;;;;;;4886612;28;107839;-65
2022/01/05 14:01:59;;;;;;;22.50;2.67;;;;;;;;;;4891526;28;106945;-66
2022/01/05 14:04:25;;;;;;;24.17;2.85;;;;;;;;;;4886421;28;107707;-66
2022/01/05 14:06:58;;;;;;;28.08;2.40;;;;;;;;;;4890463;28;105622;-65
2022/01/05 14:09:30;;;;;;;22.95;2.45;;;;;;;;;;4887202;28;106839;-66
2022/01/05 14:11:57;;;;;;;26.48;4.38;;;;;;;;;;4894652;28;106611;-66
2022/01/05 14:14:24;;;;;;;31.45;3.45;;;;;;;;;;4888189;28;107164;-67
2022/01/05 14:16:51;;;;;;;23.25;2.78;;;;;;;;;;4889298;28;107478;-65
2022/01/05 14:19:27;;;;;;;30.97;2.87;;;;;;;;;;4891124;28;105636;-66
2022/01/05 14:22:03;;;;;;;20.75;2.58;;;;;;;;;;4870005;28;108409;-66
2022/01/05 14:24:32;;;;;;;25.15;2.72;;;;;;;;;;4878132;28;106940;-66